Time;durP1;ratioP1;P1;durP2;ratioP2;P2;SDS_P1;SDS_P2;PMS_P1;PMS_P2;Temp;Humidity;BMP_temperature;BMP_pressure;BME280_temperature;BME280_humidity;BME280_pressure;Samples;Min_cycle;Max_cycle;Signal;HPM_P1;HPM_P2
2021/06/17 03:15:05;;;;;;;;;;;;;;;11.29;81.69;99134.63;690025;23;20205;-92
2021/06/17 03:17:32;;;;;;;;;;;;;;;11.28;82.38;99140.91;4982527;28;20205;-91
2021/06/17 03:20:01;;;;;;;;;;;;;;;11.26;82.87;99140.09;4984123;28;20281;-89
2021/06/17 03:22:27;;;;;;;;;;;;;;;11.13;82.59;99144.41;4984467;28;19933;-91
2021/06/17 03:24:56;;;;;;;;;;;;;;;11.25;83.89;99147.22;4982786;28;19926;-90
2021/06/17 03:27:21;;;;;;;;;;;;;;;11.15;82.60;99146.00;4984186;28;19918;-89
2021/06/17 03:29:48;;;;;;;;;;;;;;;11.15;82.65;99140.69;4997841;23;19934;-86
2021/06/17 03:32:15;;;;;;;;;;;;;;;11.15;82.71;99131.91;4985866;28;19922;-86
2021/06/17 03:34:41;;;;;;;;;;;;;;;11.20;83.17;99128.06;4969178;28;19922;-85
2021/06/17 03:37:08;;;;;;;;;;;;;;;11.30;83.14;99131.06;4969716;28;19989;-88
2021/06/17 03:39:33;;;;;;;;;;;;;;;11.25;82.76;99127.81;4969431;28;19937;-88
2021/06/17 03:42:00;;;;;;;;;;;;;;;11.20;82.71;99130.72;4968418;28;20201;-87
2021/06/17 03:44:27;;;;;;;;;;;;;;;11.26;82.67;99137.44;4985643;28;19922;-88
2021/06/17 03:46:54;;;;;;;;;;;;;;;11.26;82.83;99135.69;4985313;28;19922;-87
2021/06/17 03:49:21;;;;;;;;;;;;;;;11.16;83.36;99136.28;4966621;28;19925;-86
2021/06/17 03:51:47;;;;;;;;;;;;;;;11.19;82.89;99133.44;4983569;28;20290;-87
2021/06/17 03:54:23;;;;;;;;;;;;;;;11.34;83.02;99127.25;4984658;28;19922;-87
2021/06/17 03:56:49;;;;;;;;;;;;;;;11.33;83.04;99127.34;4969315;28;19949;-89
2021/06/17 03:59:16;;;;;;;;;;;;;;;11.29;82.76;99133.78;4985864;28;20324;-87
2021/06/17 04:01:41;;;;;;;;;;;;;;;11.20;84.94;99130.72;4966248;28;19922;-87
2021/06/17 04:04:06;;;;;;;;;;;;;;;11.23;83.16;99134.97;4981548;28;19922;-87
2021/06/17 04:06:32;;;;;;;;;;;;;;;11.26;83.20;99124.19;4982274;28;20286;-88
2021/06/17 04:08:57;;;;;;;;;;;;;;;11.13;83.44;99137.28;4965308;28;20015;-86
2021/06/17 04:11:24;;;;;;;;;;;;;;;11.15;83.65;99137.19;4963990;28;19930;-86
2021/06/17 04:13:50;;;;;;;;;;;;;;;11.12;83.47;99142.66;4981294;28;20198;-87
2021/06/17 04:16:18;;;;;;;;;;;;;;;11.08;83.75;99140.19;4964312;28;20040;-87
2021/06/17 04:18:45;;;;;;;;;;;;;;;11.08;83.95;99136.69;4981098;28;19976;-87
2021/06/17 04:21:10;;;;;;;;;;;;;;;11.17;83.17;99153.88;4964826;28;19937;-86
2021/06/17 04:23:36;;;;;;;;;;;;;;;11.18;83.01;99145.84;4964269;28;19922;-87
2021/06/17 04:26:02;;;;;;;;;;;;;;;11.13;83.28;99149.69;4963835;28;20297;-86
2021/06/17 04:28:28;;;;;;;;;;;;;;;11.13;82.74;99147.88;4981122;28;19933;-86
2021/06/17 04:30:54;;;;;;;;;;;;;;;11.08;82.98;99153.44;4964062;28;19957;-88
2021/06/17 07:29:08;;;;;;;;;;;;;;;10.94;85.46;99224.91;1450789;26;19933;-90
2021/06/17 07:31:34;;;;;;;;;;;;;;;10.86;85.24;99219.16;4963521;28;19922;-89
2021/06/17 07:34:00;;;;;;;;;;;;;;;10.83;85.39;99221.97;4979877;28;20206;-88
2021/06/17 07:36:25;;;;;;;;;;;;;;;10.88;85.08;99233.19;4979773;28;19954;-87
2021/06/17 07:38:51;;;;;;;;;;;;;;;10.88;85.30;99235.84;4980011;28;19922;-87
2021/06/17 07:41:16;;;;;;;;;;;;;;;10.85;85.38;99230.69;4980006;28;19930;-90
2021/06/17 07:43:41;;;;;;;;;;;;;;;10.93;85.39;99228.53;4979172;28;19961;-90
2021/06/17 07:46:07;;;;;;;;;;;;;;;10.95;84.90;99226.63;4979371;28;19922;-90
2021/06/17 07:48:33;;;;;;;;;;;;;;;10.92;85.52;99232.09;4962702;28;20179;-90
2021/06/17 07:50:59;;;;;;;;;;;;;;;10.87;85.45;99228.84;4963033;28;19954;-89
2021/06/17 07:53:24;;;;;;;;;;;;;;;10.87;85.45;99223.53;4978997;28;19932;-89
2021/06/17 07:55:49;;;;;;;;;;;;;;;10.87;85.44;99213.78;4979716;28;19932;-89
2021/06/17 07:58:15;;;;;;;;;;;;;;;10.83;85.82;99214.03;4981339;28;19929;-89
2021/06/17 08:00:41;;;;;;;;;;;;;;;10.91;85.45;99206.53;4982503;28;20217;-89
2021/06/17 08:03:08;;;;;;;;;;;;;;;10.91;85.58;99222.41;4981693;28;19979;-87
2021/06/17 08:05:33;;;;;;;;;;;;;;;10.85;86.24;99222.75;4981431;28;19933;-89
2021/06/17 08:07:59;;;;;;;;;;;;;;;10.92;86.77;99226.78;4982003;28;19922;-89
2021/06/17 08:10:24;;;;;;;;;;;;;;;10.94;86.15;99214.31;4981611;28;19926;-90
2021/06/17 08:33:51;;;;;;;;;;;;;;;10.96;87.65;99212.44;4996291;28;19961;-92
2021/06/17 08:36:16;;;;;;;;;;;;;;;10.89;88.03;99213.69;4979393;28;19926;-84
2021/06/17 08:38:42;;;;;;;;;;;;;;;10.97;88.11;99202.69;4963711;28;20257;-84
2021/06/17 08:41:07;;;;;;;;;;;;;;;10.86;88.83;99205.91;4963567;28;19953;-84
2021/06/17 08:43:33;;;;;;;;;;;;;;;10.89;88.72;99200.44;4980564;28;19950;-84
2021/06/17 08:45:59;;;;;;;;;;;;;;;11.02;88.65;99195.34;4980062;28;20285;-84
2021/06/17 08:48:24;;;;;;;;;;;;;;;11.01;88.54;99198.91;4979945;28;20214;-84
2021/06/17 08:50:51;;;;;;;;;;;;;;;10.96;88.45;99195.66;4980169;28;19929;-84
2021/06/17 08:53:17;;;;;;;;;;;;;;;10.97;88.02;99203.53;4980682;28;20290;-85
2021/06/17 08:55:42;;;;;;;;;;;;;;;10.92;88.10;99205.59;4981151;28;19922;-86
2021/06/17 08:58:08;;;;;;;;;;;;;;;10.90;88.34;99202.19;4964586;28;19929;-87
2021/06/17 09:00:38;;;;;;;;;;;;;;;10.98;87.71;99199.97;4963805;28;19926;-85
2021/06/17 09:03:10;;;;;;;;;;;;;;;10.88;88.48;99211.97;4963915;28;19985;-84
2021/06/17 09:05:38;;;;;;;;;;;;;;;10.94;88.29;99214.31;4980786;28;19922;-84
2021/06/17 09:08:04;;;;;;;;;;;;;;;10.94;88.32;99219.59;4980889;28;20182;-85
2021/06/17 09:10:30;;;;;;;;;;;;;;;10.92;89.00;99215.34;4964259;28;19950;-87
2021/06/17 09:12:57;;;;;;;;;;;;;;;11.07;89.04;99212.72;4980800;28;20296;-84
2021/06/17 09:15:33;;;;;;;;;;;;;;;11.06;88.64;99213.66;4980599;28;19932;-86
2021/06/17 09:18:09;;;;;;;;;;;;;;;11.10;89.08;99214.34;4980796;28;20278;-84
2021/06/17 09:20:35;;;;;;;;;;;;;;;11.06;89.32;99218.97;4963715;28;19926;-85
2021/06/17 09:23:20;;;;;;;;;;;;;;;11.01;90.35;99213.06;4963529;28;19929;-83
2021/06/17 09:25:46;;;;;;;;;;;;;;;11.06;89.92;99218.97;4979376;28;19932;-84
2021/06/17 09:28:12;;;;;;;;;;;;;;;11.04;90.64;99218.19;4962919;28;19932;-85
2021/06/17 09:30:37;;;;;;;;;;;;;;;11.12;90.22;99223.09;4980541;28;19922;-86
2021/06/17 09:33:10;;;;;;;;;;;;;;;11.07;90.13;99223.34;4964057;28;19989;-86
2021/06/17 09:35:46;;;;;;;;;;;;;;;11.05;90.64;99225.19;4980005;28;19923;-84
2021/06/17 09:38:11;;;;;;;;;;;;;;;11.07;91.21;99220.69;4980851;28;20058;-84
2021/06/17 09:40:50;;;;;;;;;;;;;;;11.19;90.32;99220.97;4980355;28;21159;-83
2021/06/17 09:43:22;;;;;;;;;;;;;;;11.08;90.51;99217.06;4977278;28;20432;-84
2021/06/17 09:45:50;;;;;;;;;;;;;;;11.08;90.89;99222.38;4979506;28;19995;-83
2021/06/17 09:48:34;;;;;;;;;;;;;;;11.08;90.78;99230.31;4962040;28;20305;-83
2021/06/17 09:51:18;;;;;;;;;;;;;;;11.18;90.70;99233.34;4961192;28;19922;-83
2021/06/17 09:53:44;;;;;;;;;;;;;;;11.17;91.64;99233.41;4976977;28;19922;-83
2021/06/17 09:56:09;;;;;;;;;;;;;;;11.26;91.43;99240.88;4980096;28;20330;-84
2021/06/17 09:58:38;;;;;;;;;;;;;;;11.15;91.25;99232.66;4979636;28;19926;-85
2021/06/17 10:01:05;;;;;;;;;;;;;;;11.13;90.97;99240.69;4961527;28;19968;-84
2021/06/17 10:03:32;;;;;;;;;;;;;;;11.18;90.45;99229.84;4978531;28;19922;-83
2021/06/17 10:05:57;;;;;;;;;;;;;;;11.17;91.01;99220.16;4979196;28;20329;-84
2021/06/17 10:08:23;;;;;;;;;;;;;;;11.15;91.61;99222.03;4979797;28;19922;-86
2021/06/17 10:10:48;;;;;;;;;;;;;;;11.16;91.73;99226.41;4979681;28;19922;-84
2021/06/17 10:13:17;;;;;;;;;;;;;;;11.21;91.09;99221.72;4978302;28;20319;-84
2021/06/17 10:15:43;;;;;;;;;;;;;;;11.28;92.30;99228.41;4961998;28;19958;-84
2021/06/17 10:18:08;;;;;;;;;;;;;;;11.23;92.38;99233.09;4962547;28;20404;-83
2021/06/17 10:20:34;;;;;;;;;;;;;;;11.26;92.14;99224.97;4959217;28;19926;-84
2021/06/17 10:22:59;;;;;;;;;;;;;;;11.22;92.31;99239.34;4977835;28;19926;-83
2021/06/17 10:25:26;;;;;;;;;;;;;;;11.19;92.42;99237.72;4978847;28;19934;-84
2021/06/17 10:27:57;;;;;;;;;;;;;;;11.21;91.60;99230.53;4978535;28;21270;-84
2021/06/17 10:30:37;;;;;;;;;;;;;;;11.27;91.31;99232.84;4979887;28;19922;-83
2021/06/17 10:33:04;;;;;;;;;;;;;;;11.24;92.42;99232.16;4978368;28;19957;-84
2021/06/17 10:35:30;;;;;;;;;;;;;;;11.23;91.85;99235.75;4978360;28;19954;-84
2021/06/17 10:37:58;;;;;;;;;;;;;;;11.24;92.48;99233.00;4979398;28;19984;-83
2021/06/17 10:40:25;;;;;;;;;;;;;;;11.27;92.26;99232.84;4978803;28;19938;-83
2021/06/17 10:42:52;;;;;;;;;;;;;;;11.28;92.64;99233.72;4961271;28;19988;-85
2021/06/17 10:45:32;;;;;;;;;;;;;;;11.24;92.26;99222.41;4978330;28;20287;-83
2021/06/17 10:48:25;;;;;;;;;;;;;;;11.21;93.41;99219.06;4978012;28;20289;-83
2021/06/17 10:50:51;;;;;;;;;;;;;;;11.36;93.89;99226.19;4978684;28;20305;-82
2021/06/17 10:53:23;;;;;;;;;;;;;;;11.28;93.17;99223.13;4977424;28;20004;-82
2021/06/17 10:56:03;;;;;;;;;;;;;;;11.33;92.54;99229.00;4979158;28;20297;-84
2021/06/17 10:58:41;;;;;;;;;;;;;;;11.28;92.33;99228.41;4978746;28;20294;-82
2021/06/17 11:01:23;;;;;;;;;;;;;;;11.30;93.14;99226.53;4980949;28;19930;-82
2021/06/17 11:04:14;;;;;;;;;;;;;;;11.23;92.71;99226.00;4981343;28;19923;-83
2021/06/17 11:06:52;;;;;;;;;;;;;;;11.26;92.22;99220.53;4973958;28;20220;-83
2021/06/17 11:09:36;;;;;;;;;;;;;;;11.28;92.55;99223.13;4980117;28;19973;-83
2021/06/17 11:12:03;;;;;;;;;;;;;;;11.31;91.91;99209.66;4964871;28;19933;-85
2021/06/17 11:14:37;;;;;;;;;;;;;;;11.19;92.05;99205.03;4976777;28;20309;-83
2021/06/17 11:17:22;;;;;;;;;;;;;;;11.23;91.25;99196.84;4981885;28;19922;-84
2021/06/17 11:20:04;;;;;;;;;;;;;;;11.29;92.39;99203.59;4977054;28;20132;-83
2021/06/17 11:22:41;;;;;;;;;;;;;;;11.24;92.24;99197.69;4962752;28;19926;-83
2021/06/17 11:25:33;;;;;;;;;;;;;;;11.30;91.43;99194.69;4961180;28;19922;-83
2021/06/17 11:28:00;;;;;;;;;;;;;;;11.34;92.37;99198.03;4962209;28;19926;-85
2021/06/17 11:30:37;;;;;;;;;;;;;;;11.30;92.69;99192.06;4981433;28;20400;-85
2021/06/17 11:33:15;;;;;;;;;;;;;;;11.27;91.21;99190.41;4981514;28;19922;-84
2021/06/17 11:35:47;;;;;;;;;;;;;;;11.31;90.75;99180.47;4963075;28;19941;-83
2021/06/17 11:38:20;;;;;;;;;;;;;;;11.26;91.68;99190.50;4978139;28;19922;-84
2021/06/17 11:40:46;;;;;;;;;;;;;;;11.27;92.28;99194.88;4979855;28;19953;-83
2021/06/17 11:43:11;;;;;;;;;;;;;;;11.25;91.83;99196.75;4982821;28;19922;-84
2021/06/17 11:45:37;;;;;;;;;;;;;;;11.28;92.88;99196.59;4979473;28;20376;-83
2021/06/17 11:48:06;;;;;;;;;;;;;;;11.28;92.53;99199.25;4977928;28;19933;-84
2021/06/17 11:50:32;;;;;;;;;;;;;;;11.29;92.16;99192.13;4962007;28;19930;-84
2021/06/17 11:52:58;;;;;;;;;;;;;;;11.37;91.35;99203.16;4980888;28;19922;-85
2021/06/17 11:55:25;;;;;;;;;;;;;;;11.25;91.89;99208.22;4980140;28;19922;-84
2021/06/17 11:57:50;;;;;;;;;;;;;;;11.29;92.42;99211.53;4980351;28;20245;-86
2021/06/17 12:00:31;;;;;;;;;;;;;;;11.38;93.30;99205.75;4980625;28;19934;-85
2021/06/17 12:02:56;;;;;;;;;;;;;;;11.34;93.07;99206.84;4979302;28;19937;-83
2021/06/17 12:05:23;;;;;;;;;;;;;;;11.39;94.08;99204.81;4977986;28;19922;-85
2021/06/17 12:07:50;;;;;;;;;;;;;;;11.31;92.63;99196.38;4962793;28;19959;-83
2021/06/17 12:10:19;;;;;;;;;;;;;;;11.34;93.05;99200.69;4953634;28;19930;-82
2021/06/17 12:12:50;;;;;;;;;;;;;;;11.30;93.09;99200.00;4961964;28;20322;-82
2021/06/17 12:15:28;;;;;;;;;;;;;;;11.34;92.82;99192.72;4973936;28;19954;-83
2021/06/17 12:17:54;;;;;;;;;;;;;;;11.30;93.47;99202.66;4978388;28;20218;-85
2021/06/17 12:20:22;;;;;;;;;;;;;;;11.34;94.52;99201.53;4978978;28;20400;-82
2021/06/17 12:23:03;;;;;;;;;;;;;;;11.34;93.70;99200.69;4979568;28;19930;-82
2021/06/17 12:25:30;;;;;;;;;;;;;;;11.36;93.14;99193.50;4974636;28;19973;-85
2021/06/17 12:27:55;;;;;;;;;;;;;;;11.33;92.96;99191.00;4977866;28;19918;-83
2021/06/17 12:30:21;;;;;;;;;;;;;;;11.37;92.71;99196.06;4978993;28;19922;-83
2021/06/17 12:32:47;;;;;;;;;;;;;;;11.33;93.41;99194.53;4965167;28;20222;-83
2021/06/17 12:35:13;;;;;;;;;;;;;;;11.34;93.43;99196.22;4961197;28;20000;-83
2021/06/17 12:37:57;;;;;;;;;;;;;;;11.30;93.20;99188.56;4979443;28;19926;-85
2021/06/17 12:40:52;;;;;;;;;;;;;;;11.32;92.83;99187.50;4952295;28;19982;-85
2021/06/17 12:43:18;;;;;;;;;;;;;;;11.33;93.04;99181.28;4934893;29;19938;-84
2021/06/17 12:45:45;;;;;;;;;;;;;;;11.36;94.81;99181.09;4972014;28;19922;-84
2021/06/17 12:48:30;;;;;;;;;;;;;;;11.25;92.31;99178.19;4974083;28;20292;-83
2021/06/17 12:53:57;;;;;;;;;;;;;;;11.28;92.49;99170.06;4922510;29;20251;-85
2021/06/17 12:56:23;;;;;;;;;;;;;;;11.31;93.52;99176.97;4961433;29;19989;-83
2021/06/17 12:58:51;;;;;;;;;;;;;;;11.35;93.96;99175.88;4961366;29;20238;-83
2021/06/17 13:01:17;;;;;;;;;;;;;;;11.28;94.02;99180.69;4960480;29;19934;-84
2021/06/17 13:03:43;;;;;;;;;;;;;;;11.30;93.84;99175.28;4962446;28;20363;-85
2021/06/17 13:06:08;;;;;;;;;;;;;;;11.27;93.61;99174.50;4980777;28;19922;-83
2021/06/17 13:08:44;;;;;;;;;;;;;;;11.25;93.11;99176.38;4979985;28;19934;-85
2021/06/17 13:11:09;;;;;;;;;;;;;;;11.27;92.82;99178.97;4980200;28;19922;-83
2021/06/17 13:13:37;;;;;;;;;;;;;;;11.28;93.45;99180.69;4981273;28;19922;-82
2021/06/17 13:16:03;;;;;;;;;;;;;;;11.27;93.19;99178.97;4962558;28;19980;-83
2021/06/17 13:18:32;;;;;;;;;;;;;;;11.23;93.07;99172.09;4979841;28;20016;-83
2021/06/17 13:21:02;;;;;;;;;;;;;;;11.26;92.79;99161.31;4979600;28;19926;-83
2021/06/17 13:23:34;;;;;;;;;;;;;;;11.27;91.80;99160.41;4959836;29;20000;-83
2021/06/17 13:26:00;;;;;;;;;;;;;;;11.23;91.68;99157.06;4960692;29;19922;-83
2021/06/17 13:28:28;;;;;;;;;;;;;;;11.19;92.33;99160.81;4975275;28;19933;-82
2021/06/17 13:30:53;;;;;;;;;;;;;;;11.30;92.44;99157.56;4980475;28;19926;-84
2021/06/17 13:33:19;;;;;;;;;;;;;;;11.29;92.53;99161.16;4980416;28;19977;-82
2021/06/17 13:35:44;;;;;;;;;;;;;;;11.17;92.70;99162.69;4980377;28;20316;-83
2021/06/17 13:38:09;;;;;;;;;;;;;;;11.17;92.14;99151.22;4963945;28;19923;-83
2021/06/17 13:40:35;;;;;;;;;;;;;;;11.22;92.42;99154.50;4962846;28;20020;-82
2021/06/17 13:43:00;;;;;;;;;;;;;;;11.24;92.64;99147.31;4979677;28;19922;-82
2021/06/17 13:45:27;;;;;;;;;;;;;;;11.30;93.09;99151.41;4960359;29;19934;-84
2021/06/17 13:47:53;;;;;;;;;;;;;;;11.30;93.09;99146.13;4964768;28;19940;-84
2021/06/17 13:50:19;;;;;;;;;;;;;;;11.26;93.52;99148.94;4981179;28;20300;-84
2021/06/17 13:52:45;;;;;;;;;;;;;;;11.23;92.99;99145.59;4979301;28;19922;-82
2021/06/17 13:55:15;;;;;;;;;;;;;;;11.27;92.86;99137.38;4980449;28;19922;-82
2021/06/17 13:57:41;;;;;;;;;;;;;;;11.23;92.26;99134.97;4979232;28;19922;-85
2021/06/17 14:00:12;;;;;;;;;;;;;;;11.39;95.81;99138.50;4975781;28;19941;-87
2021/06/17 14:02:37;;;;;;;;;;;;;;;10.67;93.27;99143.31;4970456;28;19933;-81
2021/06/17 14:05:02;;;;;;;;;;;;;;;10.79;82.45;99133.00;4980096;28;19925;-79
2021/06/17 14:07:28;;;;;;;;;;;;;;;10.62;80.54;99140.03;4977642;28;19926;-83
2021/06/17 14:09:53;;;;;;;;;;;;;;;10.54;80.11;99134.28;4978639;28;19984;-81
2021/06/17 14:12:18;;;;;;;;;;;;;;;10.44;78.84;99146.31;4977199;28;19993;-84
2021/06/17 14:14:43;;;;;;;;;;;;;;;10.34;80.40;99152.09;4978177;28;19977;-81
2021/06/17 14:17:09;;;;;;;;;;;;;;;10.41;82.50;99149.13;4977952;28;19977;-81
2021/06/17 14:19:34;;;;;;;;;;;;;;;10.15;81.11;99148.66;4964146;28;19993;-81
2021/06/17 14:21:59;;;;;;;;;;;;;;;10.21;87.38;99150.13;4977642;28;19922;-81
2021/06/17 14:24:25;;;;;;;;;;;;;;;10.34;81.38;99146.78;4960983;28;19928;-82
2021/06/17 14:26:52;;;;;;;;;;;;;;;10.22;79.04;99131.50;4977106;28;19968;-79
2021/06/17 14:29:17;;;;;;;;;;;;;;;10.27;81.64;99134.75;4961020;28;19926;-81
2021/06/17 14:31:42;;;;;;;;;;;;;;;9.93;78.64;99139.16;4962137;28;19941;-81
2021/06/17 14:34:09;;;;;;;;;;;;;;;10.05;85.16;99140.34;4977689;28;19934;-83
2021/06/17 14:36:35;;;;;;;;;;;;;;;9.98;84.04;99142.41;4965515;28;20013;-84
2021/06/17 14:39:01;;;;;;;;;;;;;;;9.89;88.48;99145.53;4981987;28;19929;-82
2021/06/17 14:41:27;;;;;;;;;;;;;;;9.69;82.26;99143.03;4978915;28;19926;-80
2021/06/17 14:43:53;;;;;;;;;;;;;;;9.86;80.52;99139.53;4963323;28;19980;-81
2021/06/17 14:46:19;;;;;;;;;;;;;;;10.06;92.13;99134.09;4980963;28;19961;-81
2021/06/17 14:48:45;;;;;;;;;;;;;;;9.96;80.27;99128.41;4979942;28;19930;-80
2021/06/17 14:51:11;;;;;;;;;;;;;;;9.77;80.54;99124.97;4977271;28;19930;-80
2021/06/17 14:53:37;;;;;;;;;;;;;;;10.05;95.27;99118.28;4978795;28;19926;-79
2021/06/17 14:56:03;;;;;;;;;;;;;;;9.71;81.85;99114.72;4980132;28;19933;-79
2021/06/17 14:58:29;;;;;;;;;;;;;;;9.95;82.04;99109.97;4963031;28;19938;-81
2021/06/17 15:00:54;;;;;;;;;;;;;;;10.36;88.29;99109.66;4978992;28;20316;-80
2021/06/17 15:03:19;;;;;;;;;;;;;;;9.75;87.00;99111.84;4963825;28;19922;-79
2021/06/17 15:05:45;;;;;;;;;;;;;;;9.84;81.32;99126.38;4969060;28;19929;-82
2021/06/17 15:08:11;;;;;;;;;;;;;;;9.48;84.71;99123.75;4980674;28;19932;-80
2021/06/17 15:10:36;;;;;;;;;;;;;;;9.53;80.83;99122.63;4975759;28;19922;-81
2021/06/17 15:13:02;;;;;;;;;;;;;;;10.07;88.12;99112.00;4978985;28;19923;-82
2021/06/17 15:15:28;;;;;;;;;;;;;;;9.58;81.79;99125.88;4972712;28;19931;-81
2021/06/17 15:17:53;;;;;;;;;;;;;;;9.41;83.51;99133.78;4973191;28;19925;-81
2021/06/17 15:20:19;;;;;;;;;;;;;;;9.51;85.00;99129.78;4962914;28;19992;-81
2021/06/17 15:22:44;;;;;;;;;;;;;;;9.58;86.83;99135.63;4978773;28;19969;-82
2021/06/17 15:25:10;;;;;;;;;;;;;;;9.56;81.10;99121.63;4961148;28;19973;-83
2021/06/17 15:27:35;;;;;;;;;;;;;;;9.47;83.27;99120.28;4963410;28;19922;-80
2021/06/17 15:30:01;;;;;;;;;;;;;;;9.48;84.38;99123.75;4977669;28;19933;-80
2021/06/17 15:32:26;;;;;;;;;;;;;;;9.24;81.70;99113.47;4980071;28;19944;-81
2021/06/17 15:34:52;;;;;;;;;;;;;;;9.55;87.96;99118.09;4961859;28;19934;-80
2021/06/17 15:37:17;;;;;;;;;;;;;;;9.46;81.92;99110.63;4979194;28;20366;-81
2021/06/17 15:39:46;;;;;;;;;;;;;;;9.26;81.40;99115.09;4980272;28;19930;-82
2021/06/17 15:42:11;;;;;;;;;;;;;;;9.18;82.10;99106.69;4962194;28;19933;-84
2021/06/17 15:44:37;;;;;;;;;;;;;;;9.43;83.50;99113.44;4974266;28;19931;-80
2021/06/17 15:47:02;;;;;;;;;;;;;;;9.46;84.09;99121.19;4977622;28;19933;-82
2021/06/17 15:49:28;;;;;;;;;;;;;;;9.30;82.21;99118.44;4976313;28;19929;-82
2021/06/17 15:51:53;;;;;;;;;;;;;;;9.08;86.12;99118.63;4964600;28;19987;-82
2021/06/17 15:54:24;;;;;;;;;;;;;;;9.17;81.59;99109.38;4960582;28;19926;-84
2021/06/17 15:56:53;;;;;;;;;;;;;;;9.14;81.65;99112.19;4973070;28;19922;-82
2021/06/17 15:59:19;;;;;;;;;;;;;;;9.26;83.53;99112.44;4961737;28;19929;-82
2021/06/17 16:01:45;;;;;;;;;;;;;;;9.34;87.83;99116.53;4978166;28;19938;-81
2021/06/17 16:04:10;;;;;;;;;;;;;;;9.02;88.17;99117.13;4976360;28;20585;-82
2021/06/17 16:06:36;;;;;;;;;;;;;;;9.22;83.67;99116.19;4960491;28;19930;-81
2021/06/17 16:09:02;;;;;;;;;;;;;;;9.35;81.01;99108.50;4961063;28;20234;-79
2021/06/17 16:11:29;;;;;;;;;;;;;;;9.12;82.77;99111.41;4959178;28;19933;-83
2021/06/17 16:13:55;;;;;;;;;;;;;;;9.11;82.17;99115.84;4966445;28;19929;-84
2021/06/17 16:16:21;;;;;;;;;;;;;;;8.93;82.74;99116.69;4956159;29;19922;-83
2021/06/17 16:18:47;;;;;;;;;;;;;;;8.81;83.47;99113.69;4976870;28;20324;-82
2021/06/17 16:21:12;;;;;;;;;;;;;;;8.73;83.46;99116.69;4960648;28;19926;-81
2021/06/17 16:23:38;;;;;;;;;;;;;;;8.89;82.33;99114.19;4975970;28;20229;-81
2021/06/17 16:26:04;;;;;;;;;;;;;;;9.05;86.46;99105.56;4977944;28;19922;-83
2021/06/17 16:28:29;;;;;;;;;;;;;;;8.92;82.75;99110.56;4962376;28;19929;-82
2021/06/17 16:30:56;;;;;;;;;;;;;;;9.02;83.71;99105.69;4998332;28;19985;-85
2021/06/17 16:33:22;;;;;;;;;;;;;;;8.93;86.52;99112.25;4997142;28;19987;-84
2021/06/17 16:35:48;;;;;;;;;;;;;;;8.94;83.25;99106.06;4977454;28;19922;-81
2021/06/17 16:38:13;;;;;;;;;;;;;;;8.84;82.54;99102.13;4975656;28;19930;-82
2021/06/17 16:40:39;;;;;;;;;;;;;;;8.97;84.25;99099.78;4996146;28;19926;-82
2021/06/17 16:43:04;;;;;;;;;;;;;;;8.96;86.17;99101.53;4977133;28;19921;-81
2021/06/17 16:45:30;;;;;;;;;;;;;;;8.72;83.23;99095.63;4978858;28;19937;-82
2021/06/17 16:47:58;;;;;;;;;;;;;;;8.98;90.93;99097.03;4997256;28;20213;-80
2021/06/17 16:50:23;;;;;;;;;;;;;;;8.85;83.12;99098.56;4981856;28;19922;-84
2021/06/17 16:52:49;;;;;;;;;;;;;;;8.80;83.04;99098.75;4995729;28;19936;-82
2021/06/17 16:55:15;;;;;;;;;;;;;;;8.97;86.20;99097.13;4975334;28;20228;-83
2021/06/17 16:57:40;;;;;;;;;;;;;;;8.71;83.32;99093.91;4993403;28;19933;-83
2021/06/17 17:00:07;;;;;;;;;;;;;;;8.66;83.38;99103.84;4975308;28;19926;-82
2021/06/17 17:02:34;;;;;;;;;;;;;;;8.78;82.63;99098.00;4985573;28;19961;-84
2021/06/17 17:05:00;;;;;;;;;;;;;;;8.84;83.60;99095.06;4996303;28;20373;-81
2021/06/17 17:07:25;;;;;;;;;;;;;;;8.93;82.39;99095.56;4989834;28;20008;-81
2021/06/17 17:09:51;;;;;;;;;;;;;;;8.61;84.28;99096.13;4993759;28;19921;-81
2021/06/17 17:12:16;;;;;;;;;;;;;;;8.62;82.96;99100.47;4996112;28;20182;-81
2021/06/17 17:14:42;;;;;;;;;;;;;;;8.78;83.37;99103.28;4975890;28;19980;-81
2021/06/17 17:17:07;;;;;;;;;;;;;;;8.72;82.45;99095.63;4995767;28;19930;-81
2021/06/17 17:19:33;;;;;;;;;;;;;;;8.66;82.41;99098.56;4995915;28;19922;-82
2021/06/17 17:21:58;;;;;;;;;;;;;;;8.82;82.64;99096.06;4997717;28;19922;-80
2021/06/17 17:24:24;;;;;;;;;;;;;;;8.80;82.47;99101.41;4995819;28;20242;-81
2021/06/17 17:26:49;;;;;;;;;;;;;;;8.76;83.40;99099.84;4996764;28;19936;-82
2021/06/17 17:29:15;;;;;;;;;;;;;;;8.68;82.20;99101.97;4997136;28;19922;-82
2021/06/17 17:31:40;;;;;;;;;;;;;;;8.64;82.08;99095.97;4995681;28;19922;-82
2021/06/17 17:34:05;;;;;;;;;;;;;;;8.47;83.22;99103.81;5002047;28;19940;-82
2021/06/17 17:36:31;;;;;;;;;;;;;;;8.47;83.08;99109.97;4976875;28;19929;-82
2021/06/17 17:38:56;;;;;;;;;;;;;;;8.63;82.23;99114.53;4996435;28;20171;-81
2021/06/17 17:41:23;;;;;;;;;;;;;;;8.51;82.29;99116.81;4979766;28;19945;-83
2021/06/17 17:43:50;;;;;;;;;;;;;;;8.33;83.17;99120.25;4979584;28;20012;-80
2021/06/17 17:46:15;;;;;;;;;;;;;;;8.74;93.65;99120.19;4993352;28;20140;-81
2021/06/17 17:48:41;;;;;;;;;;;;;;;8.54;83.58;99114.03;4995947;28;20024;-82
2021/06/17 17:51:06;;;;;;;;;;;;;;;8.63;81.35;99114.53;5002039;28;20335;-81
2021/06/17 17:53:31;;;;;;;;;;;;;;;8.55;83.40;99117.50;4996931;28;20328;-81
2021/06/17 17:55:57;;;;;;;;;;;;;;;8.46;82.20;99118.81;4996353;28;19932;-81
2021/06/17 17:58:22;;;;;;;;;;;;;;;7.86;84.71;99117.88;4990441;28;19988;-81
2021/06/17 18:00:50;;;;;;;;;;;;;;;8.35;83.14;99116.59;4971803;28;21151;-82
2021/06/17 18:03:15;;;;;;;;;;;;;;;8.67;81.57;99124.88;4981120;28;19922;-80
2021/06/17 18:05:42;;;;;;;;;;;;;;;8.52;80.92;99128.22;4975409;28;20046;-84
2021/06/17 18:08:08;;;;;;;;;;;;;;;8.41;81.49;99131.31;4990202;28;19932;-82
2021/06/17 18:10:35;;;;;;;;;;;;;;;8.39;81.82;99135.78;4991764;28;20230;-82
2021/06/17 18:13:02;;;;;;;;;;;;;;;8.64;85.31;99132.09;4964202;28;20005;-81
2021/06/17 18:15:28;;;;;;;;;;;;;;;8.43;81.87;99125.97;4974770;28;20334;-84
2021/06/17 18:17:55;;;;;;;;;;;;;;;8.48;82.87;99138.06;4992499;28;19933;-82
2021/06/17 18:20:22;;;;;;;;;;;;;;;8.20;82.96;99138.41;4991352;28;19925;-82
2021/06/17 18:22:49;;;;;;;;;;;;;;;8.27;82.59;99139.00;4993759;28;19930;-86
2021/06/17 18:25:15;;;;;;;;;;;;;;;8.30;81.75;99131.78;4989389;28;19961;-81
2021/06/17 18:27:40;;;;;;;;;;;;;;;8.22;82.90;99138.31;4994538;28;19961;-83
2021/06/17 18:30:07;;;;;;;;;;;;;;;8.62;82.14;99136.59;4995212;28;20003;-82
2021/06/17 18:32:33;;;;;;;;;;;;;;;8.31;81.63;99130.88;4978536;28;19984;-83
2021/06/17 18:35:00;;;;;;;;;;;;;;;8.24;81.77;99139.13;4976021;28;19922;-81
2021/06/17 18:37:27;;;;;;;;;;;;;;;8.16;82.70;99137.66;4992998;28;20220;-80
2021/06/17 18:39:53;;;;;;;;;;;;;;;8.15;81.24;99141.25;4994523;28;20079;-81
2021/06/17 18:42:19;;;;;;;;;;;;;;;8.22;82.49;99139.19;4994691;28;20001;-81
2021/06/17 18:44:44;;;;;;;;;;;;;;;8.43;93.71;99144.47;4994860;28;19930;-82
2021/06/17 18:47:13;;;;;;;;;;;;;;;8.07;83.29;99140.69;4998429;28;19926;-82
2021/06/17 18:49:42;;;;;;;;;;;;;;;8.15;84.10;99138.59;4993488;28;19921;-81
2021/06/17 18:52:08;;;;;;;;;;;;;;;8.17;81.50;99143.81;4993012;28;19930;-81
2021/06/17 18:54:43;;;;;;;;;;;;;;;8.17;84.73;99144.66;4980869;28;19976;-83
2021/06/17 18:57:10;;;;;;;;;;;;;;;8.21;81.58;99150.66;4971612;28;20365;-82
2021/06/17 18:59:35;;;;;;;;;;;;;;;8.37;80.85;99146.41;4989413;28;20293;-81
2021/06/17 19:02:01;;;;;;;;;;;;;;;8.16;81.56;99147.38;4973731;28;19983;-81
2021/06/17 19:04:27;;;;;;;;;;;;;;;8.27;87.31;99150.41;4995706;28;19922;-81
2021/06/17 19:06:53;;;;;;;;;;;;;;;8.05;81.82;99139.91;4976741;28;20416;-82
2021/06/17 19:09:18;;;;;;;;;;;;;;;8.24;82.66;99144.41;4974521;28;19929;-83
2021/06/17 19:11:44;;;;;;;;;;;;;;;7.98;82.76;99149.03;4987303;28;19981;-81
2021/06/17 19:14:09;;;;;;;;;;;;;;;8.03;82.38;99144.41;4989925;28;19933;-82
2021/06/17 19:16:35;;;;;;;;;;;;;;;8.01;82.07;99143.63;4995444;28;19941;-82
2021/06/17 19:19:02;;;;;;;;;;;;;;;8.14;82.01;99144.78;4972948;28;20012;-80
2021/06/17 19:21:27;;;;;;;;;;;;;;;8.16;83.26;99142.94;4996752;28;19926;-82
2021/06/17 19:23:54;;;;;;;;;;;;;;;7.95;81.96;99135.97;5000766;28;20013;-83
2021/06/17 19:26:19;;;;;;;;;;;;;;;8.05;85.61;99139.06;4997131;28;19929;-81